Terminal Aerodrome Forecast
Issued by NWS

Home | Current Version | Previous Version | Graphics & Text | Print | Product List | Glossary On
Versions: 1 2 3 4 5 6 7 8 9 10 11 12 13 14 15 16 17 18 19 20 21 22 23 24 25 26 27
000
FTUS43 KLOT 241720
TAFMDW
TAF
KMDW 241720Z 2418/2518 02014G20KT P6SM BKN012 OVC018
     FM250100 36010KT P6SM VCSH SCT007 SCT015 BKN030
     FM250400 35009KT P6SM SCT007 OVC012=

USA.gov is the U.S. government's official web portal to all federal, state and local government web resources and services.